sensor_id;sensor_type;location;lat;lon;timestamp;pressure;altitude;pressure_sealevel;temperature;humidity
54022;BME280;39936;51.058;17.220;2023-02-28T00:00:25;103195.77;;;-1.13;91.05
54022;BME280;39936;51.058;17.220;2023-02-28T00:03:51;103195.75;;;-1.23;91.44
54022;BME280;39936;51.058;17.220;2023-02-28T00:07:09;103196.13;;;-1.27;91.45
54022;BME280;39936;51.058;17.220;2023-02-28T00:10:50;103174.87;;;-1.44;90.66
54022;BME280;39936;51.058;17.220;2023-02-28T00:18:17;103187.82;;;-1.09;89.80
54022;BME280;39936;51.058;17.220;2023-02-28T00:22:23;103188.13;;;-1.09;86.59
54022;BME280;39936;51.058;17.220;2023-02-28T00:26:06;103185.53;;;-1.02;87.81
54022;BME280;39936;51.058;17.220;2023-02-28T00:34:25;103183.94;;;-1.35;84.56
54022;BME280;39936;51.058;17.220;2023-02-28T00:38:32;103190.86;;;-1.26;84.49
54022;BME280;39936;51.058;17.220;2023-02-28T00:41:47;103184.52;;;-1.33;84.85
54022;BME280;39936;51.058;17.220;2023-02-28T00:45:32;103183.66;;;-1.29;85.36
54022;BME280;39936;51.058;17.220;2023-02-28T00:49:19;103183.34;;;-1.19;84.92
54022;BME280;39936;51.058;17.220;2023-02-28T00:52:37;103182.07;;;-1.22;83.73
54022;BME280;39936;51.058;17.220;2023-02-28T00:56:10;103140.61;;;-1.38;83.85
54022;BME280;39936;51.058;17.220;2023-02-28T00:59:36;103184.08;;;-1.36;84.93
54022;BME280;39936;51.058;17.220;2023-02-28T01:02:57;103149.55;;;-1.70;85.24
54022;BME280;39936;51.058;17.220;2023-02-28T01:06:18;103183.88;;;-1.46;85.03
54022;BME280;39936;51.058;17.220;2023-02-28T01:10:11;103183.08;;;-1.40;85.45
54022;BME280;39936;51.058;17.220;2023-02-28T01:13:46;103183.11;;;-1.28;85.53
54022;BME280;39936;51.058;17.220;2023-02-28T01:21:34;103186.54;;;-1.55;88.79
54022;BME280;39936;51.058;17.220;2023-02-28T01:24:57;103179.70;;;-1.48;88.14
54022;BME280;39936;51.058;17.220;2023-02-28T01:28:28;103177.93;;;-1.49;87.89
54022;BME280;39936;51.058;17.220;2023-02-28T01:32:13;103177.25;;;-1.39;87.62
54022;BME280;39936;51.058;17.220;2023-02-28T01:35:41;103178.69;;;-1.54;90.41
54022;BME280;39936;51.058;17.220;2023-02-28T01:39:14;103175.32;;;-1.48;89.99
54022;BME280;39936;51.058;17.220;2023-02-28T01:42:51;103169.88;;;-1.49;89.40
54022;BME280;39936;51.058;17.220;2023-02-28T01:46:50;103178.54;;;-1.56;88.46
54022;BME280;39936;51.058;17.220;2023-02-28T01:50:18;103176.47;;;-1.57;89.21
54022;BME280;39936;51.058;17.220;2023-02-28T01:54:36;103172.67;;;-1.49;88.53
54022;BME280;39936;51.058;17.220;2023-02-28T01:58:34;103171.52;;;-1.38;87.28
54022;BME280;39936;51.058;17.220;2023-02-28T02:05:41;103178.70;;;-1.47;87.55
54022;BME280;39936;51.058;17.220;2023-02-28T02:09:15;103180.41;;;-1.53;87.09
54022;BME280;39936;51.058;17.220;2023-02-28T02:28:18;103172.48;;;-1.57;86.35
54022;BME280;39936;51.058;17.220;2023-02-28T02:39:53;103137.26;;;-1.88;86.70
54022;BME280;39936;51.058;17.220;2023-02-28T02:43:34;103170.41;;;-1.60;85.65
54022;BME280;39936;51.058;17.220;2023-02-28T02:47:34;103176.41;;;-1.72;87.24
54022;BME280;39936;51.058;17.220;2023-02-28T02:51:16;103173.12;;;-1.74;88.23
54022;BME280;39936;51.058;17.220;2023-02-28T02:54:41;103171.18;;;-1.72;86.89
54022;BME280;39936;51.058;17.220;2023-02-28T02:58:36;103163.77;;;-1.67;86.25
54022;BME280;39936;51.058;17.220;2023-02-28T03:02:21;103168.54;;;-1.75;86.87
54022;BME280;39936;51.058;17.220;2023-02-28T03:05:47;103171.89;;;-1.87;88.17
54022;BME280;39936;51.058;17.220;2023-02-28T03:09:27;103170.51;;;-1.82;87.70
54022;BME280;39936;51.058;17.220;2023-02-28T03:26:00;103182.87;;;-1.99;89.47
54022;BME280;39936;51.058;17.220;2023-02-28T03:30:18;103183.14;;;-1.92;88.32
54022;BME280;39936;51.058;17.220;2023-02-28T03:33:47;103177.45;;;-1.95;87.74
54022;BME280;39936;51.058;17.220;2023-02-28T03:37:19;103189.16;;;-1.85;87.35
54022;BME280;39936;51.058;17.220;2023-02-28T03:41:11;103191.00;;;-1.85;86.87
54022;BME280;39936;51.058;17.220;2023-02-28T03:45:35;103194.66;;;-1.77;87.15
54022;BME280;39936;51.058;17.220;2023-02-28T03:49:09;103193.73;;;-1.62;87.20
54022;BME280;39936;51.058;17.220;2023-02-28T03:52:42;103192.04;;;-1.54;87.27
54022;BME280;39936;51.058;17.220;2023-02-28T04:00:41;103191.73;;;-1.69;87.82
54022;BME280;39936;51.058;17.220;2023-02-28T04:04:36;103193.40;;;-1.64;87.52
54022;BME280;39936;51.058;17.220;2023-02-28T04:07:54;103196.74;;;-1.66;87.23
54022;BME280;39936;51.058;17.220;2023-02-28T04:11:42;103196.52;;;-1.77;85.90
54022;BME280;39936;51.058;17.220;2023-02-28T04:15:25;103202.38;;;-1.76;86.27
54022;BME280;39936;51.058;17.220;2023-02-28T04:18:46;103200.28;;;-1.67;86.38
54022;BME280;39936;51.058;17.220;2023-02-28T04:22:27;103206.34;;;-1.59;86.29
54022;BME280;39936;51.058;17.220;2023-02-28T04:25:59;103202.70;;;-1.64;86.06
54022;BME280;39936;51.058;17.220;2023-02-28T04:30:13;103209.08;;;-1.59;86.21
54022;BME280;39936;51.058;17.220;2023-02-28T04:33:54;103210.09;;;-1.57;86.48
54022;BME280;39936;51.058;17.220;2023-02-28T04:37:35;103214.30;;;-1.77;89.41
54022;BME280;39936;51.058;17.220;2023-02-28T04:41:18;103211.22;;;-1.78;89.31
54022;BME280;39936;51.058;17.220;2023-02-28T04:44:37;103214.02;;;-1.76;89.25
54022;BME280;39936;51.058;17.220;2023-02-28T04:51:54;103216.34;;;-1.83;89.08
54022;BME280;39936;51.058;17.220;2023-02-28T04:55:33;103216.16;;;-1.80;89.00
54022;BME280;39936;51.058;17.220;2023-02-28T04:59:52;103220.10;;;-1.92;87.10
54022;BME280;39936;51.058;17.220;2023-02-28T05:03:49;103217.06;;;-2.06;89.87
54022;BME280;39936;51.058;17.220;2023-02-28T05:07:31;103212.29;;;-2.10;89.77
54022;BME280;39936;51.058;17.220;2023-02-28T05:11:23;103219.62;;;-2.03;89.06
54022;BME280;39936;51.058;17.220;2023-02-28T05:18:38;103226.83;;;-1.93;89.86
54022;BME280;39936;51.058;17.220;2023-02-28T05:22:37;103222.48;;;-1.87;89.42
54022;BME280;39936;51.058;17.220;2023-02-28T05:26:39;103223.79;;;-1.80;88.84
54022;BME280;39936;51.058;17.220;2023-02-28T05:30:23;103228.20;;;-1.74;88.52
54022;BME280;39936;51.058;17.220;2023-02-28T05:34:42;103235.68;;;-1.69;88.62
54022;BME280;39936;51.058;17.220;2023-02-28T05:39:01;103244.23;;;-1.75;90.27
54022;BME280;39936;51.058;17.220;2023-02-28T05:42:47;103244.10;;;-2.06;92.37
54022;BME280;39936;51.058;17.220;2023-02-28T05:46:13;103231.82;;;-2.32;93.39
54022;BME280;39936;51.058;17.220;2023-02-28T05:49:37;103250.63;;;-2.30;93.19
54022;BME280;39936;51.058;17.220;2023-02-28T05:53:33;103217.59;;;-2.43;92.38
54022;BME280;39936;51.058;17.220;2023-02-28T05:57:21;103253.34;;;-2.11;91.91
54022;BME280;39936;51.058;17.220;2023-02-28T06:01:39;103261.81;;;-1.94;91.80
54022;BME280;39936;51.058;17.220;2023-02-28T06:05:33;103260.95;;;-1.79;91.47
54022;BME280;39936;51.058;17.220;2023-02-28T06:13:04;103267.02;;;-1.69;91.14
54022;BME280;39936;51.058;17.220;2023-02-28T06:16:29;103236.93;;;-1.78;90.97
54022;BME280;39936;51.058;17.220;2023-02-28T06:20:31;103276.83;;;-1.55;89.48
54022;BME280;39936;51.058;17.220;2023-02-28T06:23:51;103268.84;;;-1.48;88.93
54022;BME280;39936;51.058;17.220;2023-02-28T06:27:35;103276.94;;;-1.28;89.04
54022;BME280;39936;51.058;17.220;2023-02-28T06:31:18;103279.42;;;-1.09;88.91
54022;BME280;39936;51.058;17.220;2023-02-28T06:35:07;103278.30;;;-0.91;88.60
54022;BME280;39936;51.058;17.220;2023-02-28T06:38:58;103279.45;;;-0.81;87.63
54022;BME280;39936;51.058;17.220;2023-02-28T06:42:39;103280.95;;;-0.68;87.21
54022;BME280;39936;51.058;17.220;2023-02-28T06:46:20;103264.41;;;-0.64;86.36
54022;BME280;39936;51.058;17.220;2023-02-28T06:49:57;103276.02;;;-0.33;86.17
54022;BME280;39936;51.058;17.220;2023-02-28T06:54:26;103276.30;;;-0.08;85.72
54022;BME280;39936;51.058;17.220;2023-02-28T06:58:05;103277.52;;;0.18;85.06
54022;BME280;39936;51.058;17.220;2023-02-28T07:01:47;103283.11;;;0.40;84.40
54022;BME280;39936;51.058;17.220;2023-02-28T07:05:08;103279.03;;;0.50;82.90
54022;BME280;39936;51.058;17.220;2023-02-28T07:08:49;103277.80;;;0.63;82.36
54022;BME280;39936;51.058;17.220;2023-02-28T07:12:21;103277.58;;;0.78;81.23
54022;BME280;39936;51.058;17.220;2023-02-28T07:15:40;103280.03;;;0.89;79.40
54022;BME280;39936;51.058;17.220;2023-02-28T07:18:57;103281.57;;;0.94;77.03
54022;BME280;39936;51.058;17.220;2023-02-28T07:22:46;103278.09;;;1.05;76.63
54022;BME280;39936;51.058;17.220;2023-02-28T07:27:07;103269.03;;;1.18;74.99
54022;BME280;39936;51.058;17.220;2023-02-28T07:31:11;103277.33;;;1.41;73.38
54022;BME280;39936;51.058;17.220;2023-02-28T07:35:04;103279.59;;;1.46;71.04
54022;BME280;39936;51.058;17.220;2023-02-28T07:38:46;103283.36;;;1.53;70.39
54022;BME280;39936;51.058;17.220;2023-02-28T07:42:31;103284.90;;;1.42;68.56
54022;BME280;39936;51.058;17.220;2023-02-28T07:46:14;103291.09;;;1.26;67.64
54022;BME280;39936;51.058;17.220;2023-02-28T07:50:04;103259.61;;;0.97;67.82
54022;BME280;39936;51.058;17.220;2023-02-28T07:53:22;103289.28;;;1.19;67.86
54022;BME280;39936;51.058;17.220;2023-02-28T07:56:42;103290.36;;;1.27;67.15
54022;BME280;39936;51.058;17.220;2023-02-28T08:00:22;103289.63;;;1.31;66.37
54022;BME280;39936;51.058;17.220;2023-02-28T08:03:43;103290.27;;;1.25;65.73
54022;BME280;39936;51.058;17.220;2023-02-28T08:07:01;103281.34;;;1.38;66.30
54022;BME280;39936;51.058;17.220;2023-02-28T08:10:40;103292.23;;;1.29;63.45
54022;BME280;39936;51.058;17.220;2023-02-28T08:14:17;103290.75;;;1.32;63.86
54022;BME280;39936;51.058;17.220;2023-02-28T08:17:47;103256.31;;;1.39;63.66
54022;BME280;39936;51.058;17.220;2023-02-28T08:21:24;103273.87;;;1.55;59.49
54022;BME280;39936;51.058;17.220;2023-02-28T08:24:43;103281.91;;;1.27;56.95
54022;BME280;39936;51.058;17.220;2023-02-28T08:28:44;103285.31;;;1.13;58.47
54022;BME280;39936;51.058;17.220;2023-02-28T08:32:34;103290.37;;;0.83;57.78
54022;BME280;39936;51.058;17.220;2023-02-28T08:36:57;103291.23;;;0.61;58.21
54022;BME280;39936;51.058;17.220;2023-02-28T08:40:17;103290.55;;;0.98;60.09
54022;BME280;39936;51.058;17.220;2023-02-28T08:43:54;103292.43;;;0.94;56.70
54022;BME280;39936;51.058;17.220;2023-02-28T08:47:13;103291.34;;;0.65;56.33
54022;BME280;39936;51.058;17.220;2023-02-28T08:50:29;103292.05;;;0.81;58.15
54022;BME280;39936;51.058;17.220;2023-02-28T08:54:00;103291.92;;;0.89;56.50
54022;BME280;39936;51.058;17.220;2023-02-28T08:57:20;103294.55;;;1.13;58.74
54022;BME280;39936;51.058;17.220;2023-02-28T09:00:47;103292.66;;;1.09;56.73
54022;BME280;39936;51.058;17.220;2023-02-28T09:04:57;103289.94;;;1.23;56.62
54022;BME280;39936;51.058;17.220;2023-02-28T09:08:51;103281.52;;;1.28;55.66
54022;BME280;39936;51.058;17.220;2023-02-28T09:12:41;103263.58;;;0.90;56.77
54022;BME280;39936;51.058;17.220;2023-02-28T09:16:03;103288.95;;;1.05;56.81
54022;BME280;39936;51.058;17.220;2023-02-28T09:19:51;103287.54;;;1.06;57.84
54022;BME280;39936;51.058;17.220;2023-02-28T09:23:18;103279.73;;;1.45;58.10
54022;BME280;39936;51.058;17.220;2023-02-28T09:26:57;103271.91;;;1.69;59.10
54022;BME280;39936;51.058;17.220;2023-02-28T09:30:13;103269.68;;;1.75;57.59
54022;BME280;39936;51.058;17.220;2023-02-28T09:33:56;103270.05;;;1.56;57.20
54022;BME280;39936;51.058;17.220;2023-02-28T09:37:33;103272.57;;;1.49;56.24
54022;BME280;39936;51.058;17.220;2023-02-28T09:41:23;103260.28;;;1.62;57.07
54022;BME280;39936;51.058;17.220;2023-02-28T09:45:13;103262.38;;;1.52;57.01
54022;BME280;39936;51.058;17.220;2023-02-28T09:49:14;103258.64;;;1.36;55.10
54022;BME280;39936;51.058;17.220;2023-02-28T09:52:53;103267.34;;;1.07;54.96
54022;BME280;39936;51.058;17.220;2023-02-28T09:56:31;103266.39;;;1.16;58.03
54022;BME280;39936;51.058;17.220;2023-02-28T10:10:51;103243.04;;;1.33;57.67
54022;BME280;39936;51.058;17.220;2023-02-28T10:14:33;103274.44;;;1.71;57.78
54022;BME280;39936;51.058;17.220;2023-02-28T10:25:29;103281.52;;;1.11;56.73
54022;BME280;39936;51.058;17.220;2023-02-28T10:28:47;103252.80;;;0.93;59.03
54022;BME280;39936;51.058;17.220;2023-02-28T10:32:06;103276.69;;;1.26;57.24
54022;BME280;39936;51.058;17.220;2023-02-28T10:35:48;103272.64;;;1.25;55.43
54022;BME280;39936;51.058;17.220;2023-02-28T10:43:20;103263.82;;;1.38;56.27
54022;BME280;39936;51.058;17.220;2023-02-28T10:47:17;103264.21;;;1.46;55.39
54022;BME280;39936;51.058;17.220;2023-02-28T10:51:12;103254.48;;;1.58;56.91
54022;BME280;39936;51.058;17.220;2023-02-28T11:02:49;103239.49;;;2.06;57.41
54022;BME280;39936;51.058;17.220;2023-02-28T11:06:32;103243.51;;;2.35;56.40
54022;BME280;39936;51.058;17.220;2023-02-28T11:09:52;103245.81;;;2.40;56.40
54022;BME280;39936;51.058;17.220;2023-02-28T11:13:34;103206.02;;;2.03;55.09
54022;BME280;39936;51.058;17.220;2023-02-28T11:17:14;103234.25;;;2.22;55.68
54022;BME280;39936;51.058;17.220;2023-02-28T11:20:24;103235.25;;;2.23;55.85
54022;BME280;39936;51.058;17.220;2023-02-28T11:23:46;103230.58;;;2.01;56.87
54022;BME280;39936;51.058;17.220;2023-02-28T11:27:25;103230.05;;;2.00;56.19
54022;BME280;39936;51.058;17.220;2023-02-28T11:30:42;103229.23;;;2.31;55.99
54022;BME280;39936;51.058;17.220;2023-02-28T11:34:31;103221.55;;;2.43;55.56
54022;BME280;39936;51.058;17.220;2023-02-28T11:37:49;103224.20;;;2.47;54.98
54022;BME280;39936;51.058;17.220;2023-02-28T11:59:15;103207.41;;;2.40;55.45
54022;BME280;39936;51.058;17.220;2023-02-28T12:10:38;103195.22;;;2.45;56.59
54022;BME280;39936;51.058;17.220;2023-02-28T12:29:07;103172.56;;;2.93;56.60
54022;BME280;39936;51.058;17.220;2023-02-28T12:36:46;103164.24;;;3.27;56.42
54022;BME280;39936;51.058;17.220;2023-02-28T12:40:12;103162.84;;;3.15;58.52
54022;BME280;39936;51.058;17.220;2023-02-28T12:48:07;103156.91;;;2.73;59.05
54022;BME280;39936;51.058;17.220;2023-02-28T12:51:47;103152.36;;;2.59;58.68
54022;BME280;39936;51.058;17.220;2023-02-28T13:10:48;103125.09;;;2.87;56.21
54022;BME280;39936;51.058;17.220;2023-02-28T13:14:37;103149.26;;;2.95;58.02
54022;BME280;39936;51.058;17.220;2023-02-28T13:18:47;103138.26;;;2.94;57.32
54022;BME280;39936;51.058;17.220;2023-02-28T13:25:51;103151.88;;;3.10;59.51
54022;BME280;39936;51.058;17.220;2023-02-28T13:29:36;103157.08;;;2.75;59.68
54022;BME280;39936;51.058;17.220;2023-02-28T13:33:28;103147.90;;;2.82;60.73
54022;BME280;39936;51.058;17.220;2023-02-28T13:45:28;103147.59;;;2.59;60.86
54022;BME280;39936;51.058;17.220;2023-02-28T13:52:24;103148.22;;;2.27;59.57
54022;BME280;39936;51.058;17.220;2023-02-28T14:03:38;103126.16;;;2.77;59.29
54022;BME280;39936;51.058;17.220;2023-02-28T14:07:36;103123.28;;;2.54;58.21
54022;BME280;39936;51.058;17.220;2023-02-28T14:11:26;103119.13;;;2.45;59.16
54022;BME280;39936;51.058;17.220;2023-02-28T14:38:40;103112.98;;;2.54;57.86
54022;BME280;39936;51.058;17.220;2023-02-28T14:42:32;103109.52;;;2.61;57.17
54022;BME280;39936;51.058;17.220;2023-02-28T14:46:26;103101.08;;;2.69;56.88
54022;BME280;39936;51.058;17.220;2023-02-28T14:54:01;103095.80;;;2.64;56.53
54022;BME280;39936;51.058;17.220;2023-02-28T14:57:27;103098.00;;;2.12;56.00
54022;BME280;39936;51.058;17.220;2023-02-28T15:01:22;103069.32;;;1.92;56.33
54022;BME280;39936;51.058;17.220;2023-02-28T15:05:25;103110.78;;;2.24;56.44
54022;BME280;39936;51.058;17.220;2023-02-28T15:09:16;103109.03;;;2.24;57.09
54022;BME280;39936;51.058;17.220;2023-02-28T15:13:11;103107.10;;;2.29;57.83
54022;BME280;39936;51.058;17.220;2023-02-28T15:17:27;103073.09;;;2.24;59.08
54022;BME280;39936;51.058;17.220;2023-02-28T15:20:46;103112.82;;;2.47;57.77
54022;BME280;39936;51.058;17.220;2023-02-28T15:24:59;103112.09;;;2.32;58.35
54022;BME280;39936;51.058;17.220;2023-02-28T15:29:00;103077.10;;;2.00;58.19
54022;BME280;39936;51.058;17.220;2023-02-28T15:36:46;103103.98;;;2.26;58.38
54022;BME280;39936;51.058;17.220;2023-02-28T15:44:14;103100.05;;;2.16;57.83
54022;BME280;39936;51.058;17.220;2023-02-28T15:51:38;103096.52;;;1.97;59.89
54022;BME280;39936;51.058;17.220;2023-02-28T15:55:44;103102.38;;;1.99;60.95
54022;BME280;39936;51.058;17.220;2023-02-28T15:59:39;103100.98;;;1.93;61.18
54022;BME280;39936;51.058;17.220;2023-02-28T16:04:03;103097.74;;;1.88;62.17
54022;BME280;39936;51.058;17.220;2023-02-28T16:08:15;103093.88;;;1.77;63.94
54022;BME280;39936;51.058;17.220;2023-02-28T16:12:03;103095.84;;;1.70;64.18
54022;BME280;39936;51.058;17.220;2023-02-28T16:19:21;103099.66;;;1.58;65.99
54022;BME280;39936;51.058;17.220;2023-02-28T16:22:50;103108.66;;;1.55;65.27
54022;BME280;39936;51.058;17.220;2023-02-28T16:26:24;103115.95;;;1.44;66.46
54022;BME280;39936;51.058;17.220;2023-02-28T16:29:49;103119.29;;;1.18;67.31
54022;BME280;39936;51.058;17.220;2023-02-28T16:33:45;103097.31;;;0.71;67.85
54022;BME280;39936;51.058;17.220;2023-02-28T16:38:12;103132.40;;;0.70;69.94
54022;BME280;39936;51.058;17.220;2023-02-28T16:41:29;103130.15;;;0.58;70.36
54022;BME280;39936;51.058;17.220;2023-02-28T16:44:48;103126.94;;;0.45;71.60
54022;BME280;39936;51.058;17.220;2023-02-28T16:48:27;103120.44;;;0.30;71.03
54022;BME280;39936;51.058;17.220;2023-02-28T16:52:19;103136.65;;;0.31;71.98
54022;BME280;39936;51.058;17.220;2023-02-28T16:56:03;103144.59;;;0.16;73.91
54022;BME280;39936;51.058;17.220;2023-02-28T17:00:31;103151.32;;;0.02;75.24
54022;BME280;39936;51.058;17.220;2023-02-28T17:04:44;103140.91;;;-0.15;74.98
54022;BME280;39936;51.058;17.220;2023-02-28T17:11:58;103157.44;;;-0.31;76.70
54022;BME280;39936;51.058;17.220;2023-02-28T17:16:30;103161.09;;;-0.39;77.17
54022;BME280;39936;51.058;17.220;2023-02-28T17:19:51;103155.25;;;-0.54;78.11
54022;BME280;39936;51.058;17.220;2023-02-28T17:23:17;103164.02;;;-0.56;77.77
54022;BME280;39936;51.058;17.220;2023-02-28T17:26:58;103159.44;;;-0.56;77.55
54022;BME280;39936;51.058;17.220;2023-02-28T17:30:40;103161.37;;;-0.63;77.49
54022;BME280;39936;51.058;17.220;2023-02-28T17:34:34;103157.77;;;-0.61;76.41
54022;BME280;39936;51.058;17.220;2023-02-28T17:37:53;103158.16;;;-0.65;76.90
54022;BME280;39936;51.058;17.220;2023-02-28T17:41:18;103156.79;;;-0.72;77.25
54022;BME280;39936;51.058;17.220;2023-02-28T17:44:51;103153.54;;;-0.80;77.86
54022;BME280;39936;51.058;17.220;2023-02-28T17:48:28;103128.70;;;-1.05;78.20
54022;BME280;39936;51.058;17.220;2023-02-28T17:51:52;103130.32;;;-1.08;78.13
54022;BME280;39936;51.058;17.220;2023-02-28T17:55:47;103152.13;;;-0.92;77.50
54022;BME280;39936;51.058;17.220;2023-02-28T17:59:17;103146.12;;;-0.96;77.15
54022;BME280;39936;51.058;17.220;2023-02-28T18:03:24;103157.60;;;-1.01;78.06
54022;BME280;39936;51.058;17.220;2023-02-28T18:07:12;103169.77;;;-1.19;80.43
54022;BME280;39936;51.058;17.220;2023-02-28T18:11:23;103145.03;;;-1.46;81.24
54022;BME280;39936;51.058;17.220;2023-02-28T18:14:52;103180.43;;;-1.38;82.16
54022;BME280;39936;51.058;17.220;2023-02-28T18:18:09;103148.98;;;-1.69;84.09
54022;BME280;39936;51.058;17.220;2023-02-28T18:22:02;103185.91;;;-1.53;84.09
54022;BME280;39936;51.058;17.220;2023-02-28T18:25:53;103183.91;;;-1.55;83.86
54022;BME280;39936;51.058;17.220;2023-02-28T18:29:36;103184.51;;;-1.57;83.29
54022;BME280;39936;51.058;17.220;2023-02-28T18:32:53;103182.55;;;-1.58;83.35
54022;BME280;39936;51.058;17.220;2023-02-28T18:36:44;103186.05;;;-1.60;82.79
54022;BME280;39936;51.058;17.220;2023-02-28T18:41:14;103187.80;;;-1.58;82.75
54022;BME280;39936;51.058;17.220;2023-02-28T18:44:55;103149.70;;;-1.80;83.27
54022;BME280;39936;51.058;17.220;2023-02-28T18:48:38;103165.47;;;-1.69;83.57
54022;BME280;39936;51.058;17.220;2023-02-28T18:52:44;103186.88;;;-1.63;83.37
54022;BME280;39936;51.058;17.220;2023-02-28T18:56:11;103183.08;;;-1.67;83.13
54022;BME280;39936;51.058;17.220;2023-02-28T19:03:44;103186.88;;;-1.75;83.86
54022;BME280;39936;51.058;17.220;2023-02-28T19:07:21;103186.40;;;-1.78;84.32
54022;BME280;39936;51.058;17.220;2023-02-28T19:11:23;103184.86;;;-1.84;84.80
54022;BME280;39936;51.058;17.220;2023-02-28T19:15:00;103183.89;;;-1.84;84.29
54022;BME280;39936;51.058;17.220;2023-02-28T19:18:33;103182.90;;;-1.85;84.12
54022;BME280;39936;51.058;17.220;2023-02-28T19:26:59;103164.97;;;-2.08;85.01
54022;BME280;39936;51.058;17.220;2023-02-28T19:30:26;103189.63;;;-1.99;86.26
54022;BME280;39936;51.058;17.220;2023-02-28T19:34:14;103190.41;;;-1.96;85.57
54022;BME280;39936;51.058;17.220;2023-02-28T19:41:50;103193.15;;;-2.00;85.61
54022;BME280;39936;51.058;17.220;2023-02-28T19:45:12;103189.36;;;-2.07;86.71
54022;BME280;39936;51.058;17.220;2023-02-28T19:48:55;103189.86;;;-2.16;88.84
54022;BME280;39936;51.058;17.220;2023-02-28T19:52:33;103189.87;;;-2.23;88.81
54022;BME280;39936;51.058;17.220;2023-02-28T19:56:33;103194.07;;;-2.28;88.71
54022;BME280;39936;51.058;17.220;2023-02-28T20:00:26;103193.80;;;-2.33;88.36
54022;BME280;39936;51.058;17.220;2023-02-28T20:03:53;103191.43;;;-2.40;88.55
54022;BME280;39936;51.058;17.220;2023-02-28T20:07:20;103191.17;;;-2.56;90.68
54022;BME280;39936;51.058;17.220;2023-02-28T20:11:26;103195.55;;;-2.60;90.30
54022;BME280;39936;51.058;17.220;2023-02-28T20:15:46;103190.22;;;-2.64;90.55
54022;BME280;39936;51.058;17.220;2023-02-28T20:19:40;103200.20;;;-2.61;91.15
54022;BME280;39936;51.058;17.220;2023-02-28T20:23:54;103191.87;;;-2.63;90.71
54022;BME280;39936;51.058;17.220;2023-02-28T20:28:25;103191.92;;;-2.65;91.94
54022;BME280;39936;51.058;17.220;2023-02-28T20:32:16;103188.46;;;-2.67;91.24
54022;BME280;39936;51.058;17.220;2023-02-28T20:35:45;103194.77;;;-2.67;90.57
54022;BME280;39936;51.058;17.220;2023-02-28T20:39:32;103196.52;;;-2.62;89.64
54022;BME280;39936;51.058;17.220;2023-02-28T20:43:25;103194.98;;;-2.69;90.16
54022;BME280;39936;51.058;17.220;2023-02-28T20:46:46;103193.15;;;-2.69;90.28
54022;BME280;39936;51.058;17.220;2023-02-28T20:50:51;103196.01;;;-2.72;91.08
54022;BME280;39936;51.058;17.220;2023-02-28T20:54:35;103194.41;;;-2.75;91.33
54022;BME280;39936;51.058;17.220;2023-02-28T20:58:17;103197.59;;;-2.79;91.09
54022;BME280;39936;51.058;17.220;2023-02-28T21:01:34;103196.95;;;-2.90;92.25
54022;BME280;39936;51.058;17.220;2023-02-28T21:05:37;103197.78;;;-2.94;92.36
54022;BME280;39936;51.058;17.220;2023-02-28T21:09:07;103203.25;;;-3.06;92.30
54022;BME280;39936;51.058;17.220;2023-02-28T21:12:49;103204.26;;;-3.09;91.93
54022;BME280;39936;51.058;17.220;2023-02-28T21:17:32;103158.98;;;-3.41;92.40
54022;BME280;39936;51.058;17.220;2023-02-28T21:21:46;103161.42;;;-3.36;92.18
54022;BME280;39936;51.058;17.220;2023-02-28T21:25:05;103194.68;;;-3.18;92.19
54022;BME280;39936;51.058;17.220;2023-02-28T21:28:43;103192.28;;;-3.21;92.57
54022;BME280;39936;51.058;17.220;2023-02-28T21:33:00;103154.73;;;-3.54;93.31
54022;BME280;39936;51.058;17.220;2023-02-28T21:36:29;103198.48;;;-3.35;93.46
54022;BME280;39936;51.058;17.220;2023-02-28T21:40:13;103196.64;;;-3.41;93.38
54022;BME280;39936;51.058;17.220;2023-02-28T21:47:44;103170.05;;;-3.67;93.24
54022;BME280;39936;51.058;17.220;2023-02-28T21:51:30;103199.27;;;-3.54;93.86
54022;BME280;39936;51.058;17.220;2023-02-28T21:55:28;103200.15;;;-3.56;95.21
54022;BME280;39936;51.058;17.220;2023-02-28T21:59:10;103177.17;;;-3.71;95.64
54022;BME280;39936;51.058;17.220;2023-02-28T22:02:53;103198.37;;;-3.64;95.74
54022;BME280;39936;51.058;17.220;2023-02-28T22:06:40;103200.52;;;-3.71;95.69
54022;BME280;39936;51.058;17.220;2023-02-28T22:10:33;103201.72;;;-3.77;95.60
54022;BME280;39936;51.058;17.220;2023-02-28T22:15:06;103205.30;;;-3.80;95.58
54022;BME280;39936;51.058;17.220;2023-02-28T22:19:25;103207.55;;;-3.82;95.53
54022;BME280;39936;51.058;17.220;2023-02-28T22:22:42;103210.20;;;-3.82;95.60
54022;BME280;39936;51.058;17.220;2023-02-28T22:26:28;103210.45;;;-3.78;95.92
54022;BME280;39936;51.058;17.220;2023-02-28T22:34:36;103216.84;;;-3.81;96.05
54022;BME280;39936;51.058;17.220;2023-02-28T22:38:16;103226.63;;;-3.84;96.23
54022;BME280;39936;51.058;17.220;2023-02-28T22:42:34;103234.72;;;-3.89;96.35
54022;BME280;39936;51.058;17.220;2023-02-28T22:45:51;103205.48;;;-4.25;99.88
54022;BME280;39936;51.058;17.220;2023-02-28T22:53:44;103242.32;;;-4.18;100.00
54022;BME280;39936;51.058;17.220;2023-02-28T23:01:25;103235.52;;;-4.18;100.00
54022;BME280;39936;51.058;17.220;2023-02-28T23:05:11;103209.81;;;-4.34;100.00
54022;BME280;39936;51.058;17.220;2023-02-28T23:09:08;103234.02;;;-4.21;100.00
54022;BME280;39936;51.058;17.220;2023-02-28T23:12:29;103231.84;;;-4.33;100.00
54022;BME280;39936;51.058;17.220;2023-02-28T23:16:45;103209.25;;;-4.64;100.00
54022;BME280;39936;51.058;17.220;2023-02-28T23:20:39;103232.27;;;-4.55;100.00
54022;BME280;39936;51.058;17.220;2023-02-28T23:24:03;103236.17;;;-4.60;100.00
54022;BME280;39936;51.058;17.220;2023-02-28T23:27:52;103230.62;;;-4.58;100.00
54022;BME280;39936;51.058;17.220;2023-02-28T23:31:16;103224.65;;;-4.59;100.00
54022;BME280;39936;51.058;17.220;2023-02-28T23:38:36;103219.44;;;-4.49;100.00